Time;durP1;ratioP1;P1;durP2;ratioP2;P2;SDS_P1;SDS_P2;PMS_P1;PMS_P2;Temp;Humidity;BMP_temperature;BMP_pressure;BME280_temperature;BME280_humidity;BME280_pressure;Samples;Min_cycle;Max_cycle;Signal;HPM_P1;HPM_P2
2021/08/07 00:01:02;;;;;;;3.33;0.40;;;;;;;15.42;88.65;98418.16;2007107;77;219481;-80
2021/08/07 00:04:05;;;;;;;1.73;0.50;;;;;;;15.47;88.50;98423.22;2024513;80;20207;-81
2021/08/07 00:07:08;;;;;;;0.59;0.30;;;;;;;15.49;88.57;98418.78;2026348;79;20158;-81
2021/08/07 00:10:11;;;;;;;2.42;0.39;;;;;;;15.47;88.52;98418.00;2006428;81;20186;-80
2021/08/07 00:13:15;;;;;;;5.00;0.36;;;;;;;15.43;88.59;98416.38;2008009;81;20247;-82
2021/08/07 00:16:18;;;;;;;5.64;0.45;;;;;;;15.40;88.48;98406.06;2007332;77;246164;-81
2021/08/07 00:19:21;;;;;;;1.80;0.30;;;;;;;15.37;88.87;98411.41;2009687;81;20220;-81
2021/08/07 00:22:24;;;;;;;4.07;0.30;;;;;;;15.28;89.23;98412.63;2010252;80;20206;-81
2021/08/07 00:25:27;;;;;;;2.90;0.21;;;;;;;15.31;89.21;98411.66;2012554;80;20234;-81
2021/08/07 00:28:30;;;;;;;2.11;0.31;;;;;;;15.34;89.45;98411.53;2015335;80;20202;-81
2021/08/07 00:31:33;;;;;;;4.15;0.32;;;;;;;15.38;89.54;98406.13;2011481;77;24481;-82
2021/08/07 00:34:36;;;;;;;2.97;0.40;;;;;;;15.37;89.58;98408.78;2011827;81;20186;-81
2021/08/07 00:37:39;;;;;;;5.66;0.38;;;;;;;15.40;89.67;98408.66;2009869;81;20223;-80
2021/08/07 00:40:42;;;;;;;3.54;0.43;;;;;;;15.45;89.90;98401.50;2010184;81;20178;-80
2021/08/07 00:43:44;;;;;;;5.20;0.60;;;;;;;15.47;89.84;98398.84;2011338;80;20243;-81
2021/08/07 00:46:47;;;;;;;2.04;0.40;;;;;;;15.52;89.38;98394.25;2006633;77;21920;-80
2021/08/07 00:49:49;;;;;;;2.09;0.40;;;;;;;15.52;89.12;98396.88;2006919;81;20263;-81
2021/08/07 00:52:52;;;;;;;4.26;0.38;;;;;;;15.53;88.92;98396.81;2008079;81;20179;-81
2021/08/07 00:55:55;;;;;;;2.81;0.35;;;;;;;15.52;89.04;98405.56;2006611;81;20170;-81
2021/08/07 00:58:58;;;;;;;2.21;0.36;;;;;;;15.49;89.11;98399.63;2006457;81;20178;-81
2021/08/07 01:02:04;;;;;;;2.38;0.40;;;;;;;15.47;89.08;98397.06;2011271;81;20715;-81
2021/08/07 01:05:09;;;;;;;1.86;0.54;;;;;;;15.43;89.41;98398.06;2012336;80;20649;-80
2021/08/07 01:08:18;;;;;;;1.29;0.49;;;;;;;15.41;89.55;98395.53;2012492;81;20238;-81
2021/08/07 01:11:27;;;;;;;1.77;0.32;;;;;;;15.40;89.53;98383.34;2012660;81;20190;-81
2021/08/07 01:14:38;;;;;;;7.51;1.63;;;;;;;15.43;89.44;98385.84;2012619;81;20174;-82
2021/08/07 01:17:45;;;;;;;2.21;0.22;;;;;;;15.47;89.58;98381.38;2006052;78;20186;-82
2021/08/07 01:20:53;;;;;;;4.06;0.30;;;;;;;15.49;89.45;98387.38;2009184;81;20213;-81
2021/08/07 01:24:00;;;;;;;1.61;0.40;;;;;;;15.51;89.43;98384.72;2007314;80;20238;-82
2021/08/07 01:27:03;;;;;;;1.59;0.39;;;;;;;15.56;89.04;98380.13;2007563;81;20155;-81
2021/08/07 01:30:10;;;;;;;2.59;0.31;;;;;;;15.59;89.06;98377.41;2008928;81;20244;-82
2021/08/07 01:33:12;;;;;;;3.04;0.30;;;;;;;15.54;88.94;98385.44;2011858;77;22734;-81
2021/08/07 01:36:16;;;;;;;4.50;0.64;;;;;;;15.51;89.42;98395.19;2033890;80;20190;-81
2021/08/07 01:39:19;;;;;;;3.08;0.40;;;;;;;15.52;89.32;98389.88;2033209;80;20174;-81
2021/08/07 01:42:27;;;;;;;2.64;0.30;;;;;;;15.56;89.15;98388.84;2033413;80;20171;-81
2021/08/07 01:45:29;;;;;;;1.09;0.20;;;;;;;15.60;88.46;98382.59;2029717;77;22800;-80
2021/08/07 01:48:43;;;;;;;2.92;0.40;;;;;;;15.62;88.91;98388.63;2032215;80;20204;-81
2021/08/07 01:51:57;;;;;;;0.55;0.20;;;;;;;15.64;88.88;98383.34;2033878;80;20200;-81
2021/08/07 01:55:07;;;;;;;1.67;0.31;;;;;;;15.66;88.73;98377.13;2033782;80;20231;-81
2021/08/07 01:58:15;;;;;;;1.89;0.40;;;;;;;15.68;88.90;98391.00;2035513;80;20191;-81
2021/08/07 02:01:24;;;;;;;5.61;0.48;;;;;;;15.65;89.00;98379.81;2032058;77;20416;-81
2021/08/07 02:04:28;;;;;;;3.71;0.31;;;;;;;15.67;88.77;98377.97;2033938;80;20250;-81
2021/08/07 02:07:31;;;;;;;5.19;0.50;;;;;;;15.68;88.73;98383.13;2033747;80;20224;-81
2021/08/07 02:10:34;;;;;;;4.05;0.60;;;;;;;15.66;88.86;98376.28;2031419;80;20207;-81
2021/08/07 02:13:38;;;;;;;1.52;0.30;;;;;;;15.62;89.21;98380.78;2034972;80;20182;-81
2021/08/07 02:16:43;;;;;;;1.29;0.31;;;;;;;15.64;89.09;98372.88;2032471;77;21210;-81
2021/08/07 02:19:46;;;;;;;3.29;0.40;;;;;;;15.66;89.42;98371.88;2035835;80;20192;-81
2021/08/07 02:22:51;;;;;;;2.51;0.50;;;;;;;15.64;89.03;98376.34;2032851;80;20170;-82
2021/08/07 02:25:57;;;;;;;1.84;0.39;;;;;;;15.63;88.57;98369.41;2033373;80;20216;-81
2021/08/07 02:29:00;;;;;;;1.79;0.43;;;;;;;15.67;88.45;98359.66;2034402;80;20179;-80
2021/08/07 02:32:04;;;;;;;4.21;0.40;;;;;;;15.69;88.25;98363.06;2030517;80;20178;-80
2021/08/07 02:35:09;;;;;;;1.06;0.44;;;;;;;15.70;87.98;98359.53;2012409;80;20194;-80
2021/08/07 02:38:14;;;;;;;2.85;0.40;;;;;;;15.66;87.70;98369.28;2010724;81;20206;-80
2021/08/07 02:41:18;;;;;;;3.11;0.40;;;;;;;15.62;87.83;98367.69;2009421;81;20202;-80
2021/08/07 02:44:21;;;;;;;2.74;0.41;;;;;;;15.61;87.49;98370.34;2010603;80;20205;-80
2021/08/07 02:47:24;;;;;;;7.66;1.27;;;;;;;15.60;87.28;98366.88;2010177;77;27467;-81
2021/08/07 02:50:27;;;;;;;2.29;0.54;;;;;;;15.61;87.67;98357.28;2009408;81;20206;-80
2021/08/07 02:53:31;;;;;;;1.50;0.30;;;;;;;15.63;87.25;98339.75;2011755;80;20174;-80
2021/08/07 02:56:34;;;;;;;2.40;0.41;;;;;;;15.67;87.32;98341.34;2008724;81;20262;-80
2021/08/07 02:59:37;;;;;;;0.68;0.39;;;;;;;15.68;87.65;98338.66;2012116;81;20171;-79
2021/08/07 03:02:39;;;;;;;1.55;0.39;;;;;;;15.68;87.89;98337.81;2009572;77;20555;-79
2021/08/07 03:05:43;;;;;;;1.26;0.40;;;;;;;15.65;88.20;98346.63;2011165;81;20225;-82
2021/08/07 03:08:45;;;;;;;2.75;0.39;;;;;;;15.63;88.23;98342.38;2011879;81;20227;-81
2021/08/07 03:11:48;;;;;;;2.71;0.40;;;;;;;15.63;88.29;98340.63;2011714;81;20189;-80
2021/08/07 03:14:50;;;;;;;2.20;0.40;;;;;;;15.61;88.65;98352.88;2006839;81;20223;-80
2021/08/07 03:17:53;;;;;;;6.80;0.69;;;;;;;15.60;89.11;98345.09;2002385;77;21013;-80
2021/08/07 03:20:59;;;;;;;1.91;0.47;;;;;;;15.62;89.14;98328.44;2004504;81;20178;-81
2021/08/07 03:24:01;;;;;;;3.21;0.41;;;;;;;15.63;89.41;98322.31;2023319;80;20214;-82
2021/08/07 03:27:04;;;;;;;4.90;0.45;;;;;;;15.61;89.06;98324.09;2007488;81;20208;-81
2021/08/07 03:30:07;;;;;;;0.94;0.32;;;;;;;15.58;89.40;98331.19;2005367;81;20208;-81
2021/08/07 03:33:10;;;;;;;3.05;0.40;;;;;;;15.55;89.36;98341.81;2009746;80;20208;-82
2021/08/07 03:36:14;;;;;;;5.63;0.40;;;;;;;15.50;89.66;98339.38;2033771;80;20278;-81
2021/08/07 03:39:16;;;;;;;3.39;0.40;;;;;;;15.50;89.76;98318.44;2032476;80;20179;-81
2021/08/07 03:42:19;;;;;;;3.44;0.30;;;;;;;15.51;89.83;98329.78;2034767;80;20225;-81
2021/08/07 03:45:22;;;;;;;1.38;0.50;;;;;;;15.50;89.76;98336.75;2035631;77;24273;-81
2021/08/07 03:48:25;;;;;;;3.15;0.46;;;;;;;15.45;89.62;98324.78;2035368;80;20166;-82
2021/08/07 03:51:27;;;;;;;4.45;0.34;;;;;;;15.42;89.78;98316.13;2036954;80;20228;-81
2021/08/07 03:54:30;;;;;;;1.84;0.40;;;;;;;15.46;89.63;98319.50;2039107;80;20171;-82
2021/08/07 04:01:02;;;;;;;1.80;0.60;;;;;;;15.45;89.33;98314.34;2011921;69;208927;-82
2021/08/07 04:04:06;;;;;;;2.25;1.24;;;;;;;15.45;89.23;98312.56;2014514;81;20223;-82
2021/08/07 04:07:09;;;;;;;2.49;0.39;;;;;;;15.47;89.06;98315.13;2014766;80;20169;-82
2021/08/07 04:10:13;;;;;;;0.55;0.30;;;;;;;15.47;89.06;98308.13;2015676;80;20193;-82
2021/08/07 04:13:16;;;;;;;2.15;0.40;;;;;;;15.50;88.93;98302.75;2012701;80;20185;-81
2021/08/07 04:16:19;;;;;;;1.85;0.40;;;;;;;15.54;88.79;98309.56;2015220;80;20173;-82
2021/08/07 04:19:22;;;;;;;3.49;0.51;;;;;;;15.57;88.72;98303.34;2013321;80;20194;-81
2021/08/07 04:22:25;;;;;;;3.47;0.40;;;;;;;15.60;88.56;98305.84;2012153;80;20166;-82
2021/08/07 04:25:28;;;;;;;2.03;0.39;;;;;;;15.62;88.47;98302.28;2014338;80;20173;-82
2021/08/07 04:28:31;;;;;;;0.80;0.40;;;;;;;15.59;88.72;98302.38;2011251;80;20209;-81
2021/08/07 04:31:34;;;;;;;1.92;0.40;;;;;;;15.58;88.90;98305.03;2012505;81;20194;-81
2021/08/07 04:34:37;;;;;;;2.64;0.40;;;;;;;15.55;88.62;98297.31;2012758;80;20199;-80
2021/08/07 04:38:03;;;;;;;2.53;0.47;;;;;;;15.56;88.45;98299.88;2012044;80;20186;-81
2021/08/07 04:41:07;;;;;;;1.14;0.30;;;;;;;15.52;88.82;98293.06;2014389;80;20177;-82
2021/08/07 04:44:10;;;;;;;0.77;0.57;;;;;;;15.53;88.74;98286.06;2011350;81;20178;-81
2021/08/07 04:47:13;;;;;;;4.61;0.39;;;;;;;15.49;88.33;98294.97;2008768;77;205948;-81
2021/08/07 04:50:16;;;;;;;2.80;0.56;;;;;;;15.46;88.38;98295.09;2012660;80;20291;-81
2021/08/07 04:53:18;;;;;;;2.88;0.41;;;;;;;15.45;88.72;98289.03;2011096;80;20215;-81
2021/08/07 04:56:22;;;;;;;1.51;0.46;;;;;;;15.48;89.00;98301.97;2010747;81;20193;-81
2021/08/07 04:59:25;;;;;;;0.89;0.40;;;;;;;15.40;89.23;98306.66;2023535;79;20202;-81
2021/08/07 05:02:28;;;;;;;0.96;0.50;;;;;;;15.41;89.21;98308.34;2037138;77;163585;-81
2021/08/07 05:05:31;;;;;;;1.35;0.31;;;;;;;15.44;89.22;98297.78;2038152;79;20205;-81
2021/08/07 05:08:37;;;;;;;1.70;0.49;;;;;;;15.49;89.00;98302.81;2037578;79;20281;-81
2021/08/07 05:11:40;;;;;;;2.29;0.40;;;;;;;15.53;89.05;98310.47;2038327;79;20171;-81
2021/08/07 05:14:43;;;;;;;1.34;0.47;;;;;;;15.56;89.19;98297.25;2034829;79;20167;-82
2021/08/07 05:17:46;;;;;;;2.35;0.40;;;;;;;15.63;88.84;98292.66;2037134;76;125616;-81
2021/08/07 05:20:50;;;;;;;2.69;0.60;;;;;;;15.68;89.12;98299.41;2035795;79;20257;-80
2021/08/07 05:23:52;;;;;;;1.95;0.49;;;;;;;15.75;89.13;98293.88;2040765;79;20215;-82
2021/08/07 05:26:55;;;;;;;1.25;0.39;;;;;;;15.76;88.93;98292.97;2038410;79;20166;-81
2021/08/07 05:29:58;;;;;;;0.91;0.44;;;;;;;15.75;88.30;98299.97;2037485;79;20196;-81
2021/08/07 05:33:01;;;;;;;2.00;0.54;;;;;;;15.76;88.36;98291.19;2036999;77;173521;-82
2021/08/07 05:36:04;;;;;;;3.19;0.40;;;;;;;15.80;88.25;98294.53;2041223;79;20250;-81
2021/08/07 05:39:07;;;;;;;3.89;0.60;;;;;;;15.87;88.25;98303.84;2034807;80;20158;-82
2021/08/07 05:42:10;;;;;;;3.38;0.60;;;;;;;15.92;88.47;98307.94;2035030;80;20527;-79
2021/08/07 05:45:12;;;;;;;1.40;0.40;;;;;;;15.95;88.71;98299.97;2028136;80;20162;-80
2021/08/07 05:48:18;;;;;;;1.06;0.30;;;;;;;16.01;88.72;98307.56;2028436;78;24315;-80
2021/08/07 05:51:21;;;;;;;0.57;0.34;;;;;;;16.02;88.76;98306.66;2038597;79;20154;-84
2021/08/07 05:54:23;;;;;;;1.60;0.40;;;;;;;16.01;87.67;98306.72;2049540;79;20192;-84
2021/08/07 06:04:22;;;;;;;1.15;0.50;;;;;;;16.09;86.20;98298.50;2030059;70;20146;-84
2021/08/07 06:11:01;;;;;;;2.89;0.63;;;;;;;16.24;85.25;98285.59;2058442;70;20150;-83
2021/08/07 06:14:04;;;;;;;3.35;0.49;;;;;;;16.33;85.24;98279.06;2013030;81;20183;-82
2021/08/07 06:17:07;;;;;;;3.80;0.61;;;;;;;16.41;84.85;98276.13;2005272;78;225959;-82
2021/08/07 06:20:12;;;;;;;2.75;0.50;;;;;;;16.51;84.73;98272.13;2011197;80;20155;-83
2021/08/07 06:23:15;;;;;;;2.31;0.44;;;;;;;16.59;84.55;98268.25;2008622;81;20348;-84
2021/08/07 06:26:22;;;;;;;1.30;0.50;;;;;;;16.62;84.37;98275.97;2009117;81;20174;-84
2021/08/07 06:29:25;;;;;;;1.45;0.41;;;;;;;16.70;84.19;98282.66;2014554;81;20179;-83
2021/08/07 06:32:27;;;;;;;4.18;0.60;;;;;;;16.75;84.29;98271.03;2006648;78;195118;-84
2021/08/07 06:35:31;;;;;;;1.25;0.36;;;;;;;16.78;83.70;98273.50;2011130;81;20200;-82
2021/08/07 06:38:34;;;;;;;1.41;0.40;;;;;;;16.85;83.56;98272.28;2015416;81;20139;-84
2021/08/07 06:41:39;;;;;;;1.29;0.40;;;;;;;16.97;83.52;98286.59;2012283;81;20187;-84
2021/08/07 06:44:42;;;;;;;1.88;0.49;;;;;;;17.03;83.52;98283.66;2008353;80;20243;-85
2021/08/07 06:47:46;;;;;;;2.58;0.60;;;;;;;17.05;82.99;98284.44;2010224;77;207779;-84
2021/08/07 06:50:49;;;;;;;2.08;0.51;;;;;;;17.14;82.94;98270.03;2012331;81;20179;-84
2021/08/07 06:53:52;;;;;;;3.81;0.60;;;;;;;17.25;82.63;98275.63;2010228;80;20234;-83
2021/08/07 06:56:55;;;;;;;1.92;0.40;;;;;;;17.41;82.34;98283.56;2010321;81;20159;-84
2021/08/07 07:00:03;;;;;;;1.36;0.50;;;;;;;17.49;81.73;98284.88;2008529;81;20192;-83
2021/08/07 07:03:06;;;;;;;2.50;0.50;;;;;;;17.58;81.58;98280.09;2005812;77;263787;-81
2021/08/07 07:06:09;;;;;;;2.11;0.50;;;;;;;17.63;81.16;98291.22;2006093;81;20220;-81
2021/08/07 07:09:12;;;;;;;1.45;0.44;;;;;;;17.70;81.21;98285.59;2005971;81;20222;-82
2021/08/07 07:12:17;;;;;;;2.04;0.49;;;;;;;17.77;81.58;98283.50;2008403;81;20174;-82
2021/08/07 07:15:20;;;;;;;2.25;0.60;;;;;;;17.80;80.72;98286.84;2005830;81;20454;-83
2021/08/07 07:44:14;;;;;;;6.13;0.79;;;;;;;18.32;76.52;98278.88;2009214;70;20172;-82
2021/08/07 07:47:25;;;;;;;3.99;0.50;;;;;;;18.30;76.53;98285.09;2006821;77;28163;-82
2021/08/07 07:50:28;;;;;;;2.31;0.50;;;;;;;18.30;76.83;98282.47;2003119;81;20210;-79
2021/08/07 07:53:31;;;;;;;3.36;0.69;;;;;;;18.33;77.25;98280.56;2007644;81;20266;-79
2021/08/07 07:56:34;;;;;;;3.40;0.57;;;;;;;18.34;77.85;98292.78;2004338;81;20203;-79
2021/08/07 07:59:37;;;;;;;2.81;0.54;;;;;;;18.39;77.96;98279.38;2004807;81;20613;-82
2021/08/07 08:02:42;;;;;;;2.06;0.57;;;;;;;18.47;77.55;98285.06;1995705;77;24156;-78
2021/08/07 08:05:45;;;;;;;1.31;0.47;;;;;;;18.51;76.21;98273.47;1995918;80;20880;-78
2021/08/07 08:08:48;;;;;;;3.09;0.64;;;;;;;18.69;76.69;98275.13;2015056;80;20199;-79
2021/08/07 08:11:51;;;;;;;1.91;0.51;;;;;;;18.95;75.64;98278.91;1997813;80;20195;-78
2021/08/07 08:14:53;;;;;;;2.60;0.65;;;;;;;19.20;74.73;98286.25;2015658;80;20247;-82
2021/08/07 08:17:56;;;;;;;4.14;0.95;;;;;;;19.42;72.81;98278.00;2009934;77;23605;-83
2021/08/07 08:20:59;;;;;;;2.63;0.57;;;;;;;19.59;71.38;98288.44;2012800;81;20170;-83
2021/08/07 08:24:02;;;;;;;3.56;0.60;;;;;;;19.65;69.77;98286.34;2014229;81;20185;-83
2021/08/07 08:27:04;;;;;;;3.30;0.56;;;;;;;19.81;69.90;98284.53;2011769;81;20230;-82
2021/08/07 08:30:09;;;;;;;3.41;0.60;;;;;;;19.89;70.23;98282.25;2011867;81;20190;-82
2021/08/07 08:36:22;;;;;;;4.80;0.63;;;;;;;19.84;69.40;98279.91;2086962;69;20762;-79
2021/08/07 09:48:21;;;;;;;3.45;0.60;;;;;;;20.02;66.25;98242.84;2049345;70;20221;-86
2021/08/07 10:06:52;;;;;;;3.88;0.57;;;;;;;19.98;69.43;98231.66;2019316;70;20173;-85
2021/08/07 10:10:48;;;;;;;1.88;0.73;;;;;;;19.97;68.86;98239.66;2013536;80;20186;-83
2021/08/07 10:13:54;;;;;;;3.31;0.50;;;;;;;19.90;69.62;98234.75;2014496;80;20231;-83
2021/08/07 10:32:09;;;;;;;6.18;0.60;;;;;;;19.69;70.19;98251.84;2028232;70;20146;-85
2021/08/07 10:38:40;;;;;;;4.36;0.70;;;;;;;19.69;70.65;98245.72;2013759;70;20228;-81
2021/08/07 10:42:07;;;;;;;2.90;0.69;;;;;;;19.73;70.55;98237.53;2018496;70;20314;-83
2021/08/07 10:45:17;;;;;;;5.20;0.64;;;;;;;19.72;70.46;98235.00;2010076;80;20152;-85
2021/08/07 10:56:35;;;;;;;4.56;0.71;;;;;;;19.74;69.43;98220.78;2013872;69;20215;-85
2021/08/07 10:59:51;;;;;;;3.25;0.63;;;;;;;19.71;68.22;98215.72;2016520;70;20241;-84
2021/08/07 11:06:43;;;;;;;2.61;0.68;;;;;;;19.87;70.09;98211.22;2005944;70;20758;-80
2021/08/07 11:10:05;;;;;;;5.03;0.79;;;;;;;20.02;69.35;98201.53;2000504;80;20312;-81
2021/08/07 11:13:25;;;;;;;2.97;0.75;;;;;;;20.15;68.65;98206.91;2000756;81;20956;-81
2021/08/07 11:16:27;;;;;;;3.09;0.89;;;;;;;20.25;68.38;98186.91;2003228;78;47795;-79
2021/08/07 11:19:59;;;;;;;4.93;0.59;;;;;;;20.21;66.39;98173.09;2007206;80;20217;-78
2021/08/07 11:23:02;;;;;;;2.31;0.65;;;;;;;20.20;65.70;98181.09;2004383;80;20178;-79
2021/08/07 11:26:06;;;;;;;2.05;0.49;;;;;;;20.28;66.38;98191.13;2002598;81;20309;-78
2021/08/07 11:29:09;;;;;;;5.07;0.60;;;;;;;20.31;66.26;98186.53;2001273;81;20174;-78
2021/08/07 11:32:15;;;;;;;1.66;0.50;;;;;;;20.34;66.88;98188.97;2001673;77;24237;-79
2021/08/07 11:35:18;;;;;;;1.70;0.61;;;;;;;20.40;67.40;98191.22;2004095;80;21100;-80
2021/08/07 11:38:23;;;;;;;4.75;0.57;;;;;;;20.46;67.74;98185.56;2005088;81;20178;-80
2021/08/07 11:41:35;;;;;;;4.68;0.70;;;;;;;20.47;67.68;98187.31;2006806;81;20218;-81
2021/08/07 11:44:41;;;;;;;2.42;0.54;;;;;;;20.47;67.78;98189.09;2006726;81;20254;-81
2021/08/07 11:47:46;;;;;;;2.78;0.55;;;;;;;20.37;66.55;98177.38;1999626;77;31780;-79
2021/08/07 11:50:49;;;;;;;5.96;0.60;;;;;;;20.33;66.46;98168.00;1996753;81;20303;-78
2021/08/07 11:53:53;;;;;;;4.29;0.56;;;;;;;20.28;66.87;98175.31;1995547;80;20212;-78
2021/08/07 11:56:55;;;;;;;3.96;0.54;;;;;;;20.18;67.67;98172.44;1995702;81;20750;-77
2021/08/07 12:00:17;;;;;;;4.91;0.90;;;;;;;20.10;68.93;98174.69;1995363;80;20332;-79
2021/08/07 12:03:20;;;;;;;4.89;0.80;;;;;;;19.98;68.56;98165.78;1990810;77;28857;-79
2021/08/07 12:06:34;;;;;;;2.13;0.50;;;;;;;19.86;68.60;98164.75;1992261;81;20306;-79
2021/08/07 12:09:37;;;;;;;3.53;0.52;;;;;;;19.79;68.87;98173.97;1991836;81;20298;-79
2021/08/07 12:12:44;;;;;;;3.06;0.60;;;;;;;19.80;68.81;98166.91;1993632;81;20191;-79
2021/08/07 12:15:56;;;;;;;2.51;0.54;;;;;;;19.88;68.96;98165.50;1994643;77;30110;-79
2021/08/07 12:19:01;;;;;;;2.56;0.73;;;;;;;20.04;68.87;98167.19;2003603;81;20319;-79
2021/08/07 12:22:04;;;;;;;5.34;0.61;;;;;;;20.21;68.14;98165.19;2002722;81;20247;-79
2021/08/07 12:25:07;;;;;;;2.94;0.60;;;;;;;20.32;69.09;98161.03;2002916;81;20206;-77
2021/08/07 12:28:16;;;;;;;1.45;0.50;;;;;;;20.37;69.05;98156.28;2000323;81;20742;-78
2021/08/07 12:31:19;;;;;;;2.35;0.60;;;;;;;20.35;67.65;98163.47;1997157;77;21481;-77
2021/08/07 12:34:29;;;;;;;4.80;0.64;;;;;;;20.26;68.46;98162.25;1995158;81;20251;-77
2021/08/07 12:37:35;;;;;;;3.17;0.60;;;;;;;20.20;69.34;98162.63;1997143;81;20162;-77
2021/08/07 12:40:37;;;;;;;2.45;0.50;;;;;;;20.12;68.54;98152.59;1996567;81;20587;-77
2021/08/07 12:43:40;;;;;;;3.64;0.54;;;;;;;20.06;69.48;98149.47;1995124;80;20186;-77
2021/08/07 12:46:48;;;;;;;3.47;0.91;;;;;;;20.04;70.15;98146.94;1997508;77;35734;-77
2021/08/07 12:49:50;;;;;;;2.17;0.74;;;;;;;20.09;69.90;98162.47;2000983;80;20655;-77
2021/08/07 12:52:59;;;;;;;2.21;0.60;;;;;;;20.09;69.32;98151.91;2000365;81;20174;-76
2021/08/07 12:56:03;;;;;;;2.81;0.65;;;;;;;20.16;69.63;98147.97;2000836;81;20730;-77
2021/08/07 12:59:07;;;;;;;3.90;0.68;;;;;;;20.31;70.29;98147.00;2000579;81;20178;-78
2021/08/07 13:02:10;;;;;;;4.41;0.73;;;;;;;20.41;69.59;98145.47;1999412;77;25231;-77
2021/08/07 13:05:13;;;;;;;4.74;0.80;;;;;;;20.45;69.92;98146.97;1999942;80;20591;-77
2021/08/07 13:08:42;;;;;;;3.09;0.91;;;;;;;20.51;68.98;98154.50;2008968;81;20208;-81
2021/08/07 13:12:10;;;;;;;3.66;0.70;;;;;;;20.34;68.22;98144.16;2002535;81;20214;-80
2021/08/07 13:15:14;;;;;;;4.38;0.82;;;;;;;20.26;70.03;98151.69;2006320;81;20211;-80
2021/08/07 13:18:16;;;;;;;2.41;0.82;;;;;;;20.15;70.70;98154.19;1999874;77;21462;-80
2021/08/07 13:21:27;;;;;;;3.95;0.60;;;;;;;20.03;70.12;98152.31;2003877;80;20170;-81
2021/08/07 13:25:27;;;;;;;4.11;0.80;;;;;;;20.02;71.36;98161.16;2027015;80;20186;-83
2021/08/07 13:29:31;;;;;;;3.80;0.60;;;;;;;19.88;71.96;98152.31;2020454;70;20201;-82
2021/08/07 13:32:39;;;;;;;2.21;0.66;;;;;;;19.74;72.66;98159.38;2007385;78;212880;-82
2021/08/07 13:35:46;;;;;;;2.33;0.59;;;;;;;19.48;73.85;98156.50;2012599;80;20219;-83
2021/08/07 13:38:51;;;;;;;7.68;1.10;;;;;;;19.35;75.58;98173.97;2051171;70;20235;-81
2021/08/07 14:21:24;;;;;;;3.86;0.60;;;;;;;18.80;82.47;98145.63;2025309;70;20197;-82
2021/08/07 14:24:27;;;;;;;2.59;0.70;;;;;;;18.71;83.57;98156.69;2011552;80;20178;-82
2021/08/07 14:27:29;;;;;;;2.84;0.73;;;;;;;18.62;84.03;98159.81;2010003;81;20197;-82
2021/08/07 14:30:32;;;;;;;2.94;0.60;;;;;;;18.54;84.35;98165.50;2013876;81;20231;-84
2021/08/07 14:37:13;;;;;;;4.14;0.82;;;;;;;18.38;85.20;98183.91;2012765;70;20210;-80
2021/08/07 14:40:38;;;;;;;3.33;0.71;;;;;;;18.24;85.91;98185.59;2004799;80;20187;-78
2021/08/07 14:43:42;;;;;;;1.76;0.61;;;;;;;18.15;86.34;98196.63;2001848;80;20278;-75
2021/08/07 14:47:03;;;;;;;3.42;0.85;;;;;;;18.06;86.55;98187.44;2002692;78;20267;-78
2021/08/07 14:50:09;;;;;;;3.90;0.90;;;;;;;18.02;86.53;98199.91;2006328;81;20262;-82
2021/08/07 14:53:12;;;;;;;2.89;0.86;;;;;;;17.96;86.95;98197.59;2008666;81;20142;-77
2021/08/07 14:56:14;;;;;;;2.38;0.84;;;;;;;17.82;87.15;98208.00;2008487;80;20205;-84
2021/08/07 14:59:18;;;;;;;2.64;0.70;;;;;;;17.73;87.82;98213.72;2129176;70;20220;-84
2021/08/07 15:02:22;;;;;;;3.51;0.80;;;;;;;17.78;88.17;98215.19;2015488;77;219119;-80
2021/08/07 15:05:25;;;;;;;2.03;0.61;;;;;;;17.74;88.80;98216.25;2016248;80;20180;-79
2021/08/07 15:08:27;;;;;;;1.24;0.60;;;;;;;17.77;89.30;98202.09;2017672;80;20505;-82
2021/08/07 15:11:30;;;;;;;2.61;0.60;;;;;;;17.80;89.24;98209.84;2018193;80;20998;-80
2021/08/07 15:14:33;;;;;;;1.15;0.60;;;;;;;17.89;88.90;98203.25;2018493;80;20209;-81
2021/08/07 15:17:36;;;;;;;3.16;0.57;;;;;;;17.86;88.87;98199.00;2012899;77;24431;-80
2021/08/07 15:20:39;;;;;;;1.75;0.60;;;;;;;17.70;88.01;98208.63;2014983;80;20204;-79
2021/08/07 15:23:47;;;;;;;4.76;0.93;;;;;;;17.64;88.55;98204.53;2014306;80;20191;-80
2021/08/07 15:26:51;;;;;;;1.51;0.51;;;;;;;17.61;88.93;98217.81;2012405;80;20619;-76
2021/08/07 15:29:53;;;;;;;0.73;0.43;;;;;;;17.47;89.30;98208.00;2007198;80;20695;-76
2021/08/07 15:32:56;;;;;;;3.71;0.40;;;;;;;17.49;89.93;98185.16;2005267;79;23843;-80
2021/08/07 15:35:59;;;;;;;1.00;0.50;;;;;;;17.65;90.22;98172.09;2007208;80;20317;-77
2021/08/07 15:39:02;;;;;;;4.46;0.50;;;;;;;17.95;91.08;98159.09;2006912;80;20279;-76
2021/08/07 15:42:05;;;;;;;1.48;0.43;;;;;;;18.33;91.32;98159.66;2007144;80;20202;-78
2021/08/07 15:45:09;;;;;;;0.88;0.44;;;;;;;18.61;89.84;98163.38;2008500;80;20255;-80
2021/08/07 15:48:12;;;;;;;3.34;0.43;;;;;;;18.82;89.05;98161.31;2015804;78;22796;-78
2021/08/07 15:51:15;;;;;;;0.49;0.30;;;;;;;19.13;88.05;98157.75;2015670;80;21004;-79
2021/08/07 15:54:18;;;;;;;0.65;0.50;;;;;;;19.18;85.89;98153.91;2016178;80;20205;-79
2021/08/07 15:57:20;;;;;;;4.11;0.69;;;;;;;19.30;85.58;98137.41;2010615;80;20207;-78
2021/08/07 16:00:23;;;;;;;0.91;0.41;;;;;;;19.62;85.48;98134.66;2002528;78;20301;-77
2021/08/07 16:03:26;;;;;;;1.71;0.40;;;;;;;19.85;84.64;98128.81;1992378;81;20320;-76
2021/08/07 16:06:29;;;;;;;1.26;0.52;;;;;;;19.99;83.53;98127.94;1991628;81;20205;-78
2021/08/07 16:09:31;;;;;;;0.71;0.39;;;;;;;19.88;81.86;98138.28;1991731;81;20209;-76
2021/08/07 16:12:35;;;;;;;0.93;0.50;;;;;;;19.91;82.31;98124.94;1991921;81;20760;-76
2021/08/07 16:15:38;;;;;;;2.16;0.46;;;;;;;19.98;82.42;98126.25;1990760;78;21051;-76
2021/08/07 16:18:41;;;;;;;2.01;0.40;;;;;;;19.76;80.78;98126.75;1986514;81;20321;-76
2021/08/07 16:21:44;;;;;;;0.55;0.30;;;;;;;19.65;81.02;98131.81;1987834;81;20179;-74
2021/08/07 16:24:46;;;;;;;1.38;0.30;;;;;;;19.38;79.86;98136.94;1986109;81;20216;-76
2021/08/07 16:27:49;;;;;;;0.64;0.28;;;;;;;19.13;80.63;98152.50;1986298;80;20289;-76
2021/08/07 16:30:52;;;;;;;3.76;0.40;;;;;;;19.02;81.45;98156.59;2000831;78;20681;-76
2021/08/07 16:33:54;;;;;;;0.86;0.29;;;;;;;18.88;82.31;98146.06;1991414;81;20202;-76
2021/08/07 16:36:57;;;;;;;0.74;0.30;;;;;;;18.84;82.71;98156.81;1991232;81;20983;-77
2021/08/07 16:40:00;;;;;;;0.99;0.30;;;;;;;18.72;82.12;98163.66;1988893;81;20866;-77
2021/08/07 16:43:03;;;;;;;3.03;0.40;;;;;;;18.69;83.27;98150.69;1991088;81;20195;-76
2021/08/07 16:46:08;;;;;;;0.70;0.35;;;;;;;18.75;84.18;98152.09;1989239;78;23616;-77
2021/08/07 16:49:11;;;;;;;0.81;0.30;;;;;;;18.87;84.77;98159.28;1986192;81;20735;-77
2021/08/07 16:52:14;;;;;;;0.47;0.22;;;;;;;18.93;84.04;98161.56;1986544;81;20240;-77
2021/08/07 16:55:16;;;;;;;1.05;0.30;;;;;;;18.96;83.86;98159.59;1985258;81;20227;-76
2021/08/07 16:58:19;;;;;;;0.31;0.30;;;;;;;19.04;84.37;98164.44;1985966;81;20218;-77
2021/08/07 17:01:22;;;;;;;0.52;0.35;;;;;;;19.02;84.12;98171.53;2004359;78;20224;-77
2021/08/07 17:04:25;;;;;;;0.77;0.30;;;;;;;18.96;83.44;98171.91;2011029;80;20234;-77
2021/08/07 17:07:27;;;;;;;0.98;0.40;;;;;;;18.90;83.16;98178.38;2010787;80;20245;-77
2021/08/07 17:10:50;;;;;;;0.49;0.40;;;;;;;18.85;83.01;98174.28;2010834;80;20192;-77
2021/08/07 17:13:52;;;;;;;2.31;0.50;;;;;;;18.70;83.04;98189.19;2010812;80;20222;-77
2021/08/07 17:16:55;;;;;;;0.51;0.20;;;;;;;18.64;83.67;98203.50;2010901;77;22650;-78
2021/08/07 17:19:58;;;;;;;0.94;0.30;;;;;;;18.56;83.92;98195.19;2011110;80;20319;-77
2021/08/07 17:23:03;;;;;;;0.66;0.40;;;;;;;18.55;84.19;98190.84;2012033;80;20192;-78
2021/08/07 17:26:06;;;;;;;0.40;0.25;;;;;;;18.53;83.35;98178.72;2010639;80;20291;-78
2021/08/07 17:29:09;;;;;;;1.14;0.40;;;;;;;18.52;83.29;98204.19;2011002;80;20176;-78
2021/08/07 17:32:11;;;;;;;0.46;0.30;;;;;;;18.51;83.29;98186.72;2012028;78;23243;-78
2021/08/07 17:35:14;;;;;;;0.57;0.26;;;;;;;18.53;83.39;98179.59;2011805;80;21270;-78
2021/08/07 17:38:16;;;;;;;0.45;0.30;;;;;;;18.52;83.36;98192.81;2011843;80;20211;-80
2021/08/07 17:41:20;;;;;;;0.30;0.30;;;;;;;18.45;83.33;98191.44;2011061;80;20245;-79
2021/08/07 17:44:30;;;;;;;2.36;0.47;;;;;;;18.41;83.22;98180.25;2011354;80;20482;-78
2021/08/07 17:47:32;;;;;;;2.40;0.40;;;;;;;18.41;83.24;98167.13;2011520;78;20217;-78
2021/08/07 17:50:37;;;;;;;0.65;0.30;;;;;;;18.29;82.17;98180.91;2011865;80;20168;-78
2021/08/07 17:53:39;;;;;;;0.61;0.30;;;;;;;18.23;81.74;98179.50;2013791;80;20188;-80